Flight Track Log - Related Links

Times and Time Zones

All times are in EDT time to prevent confusion due to time zone crossing. See the AAL1686 flight status page for this flight to view local times or setup timezone preferences in your user account.

Time Position Orientation Groundspeed Altitude Reporting Facility
EDT Latitude Longitude Course Direction KTS MPH feet Rate Location/Type
Wed 07:39:32 PM 33.9333 -118.4500 90° East 191 220 2,100  Level Southern California TRACON
Wed 07:40:32 PM 33.8833 -118.5167 228° Southwest 258 297 4,600 2,800 Climbing Southern California TRACON
Wed 07:41:00 PM 33.7667 -118.0047 90° East  Level FlightAware Approximate
Wed 07:41:32 PM 33.8000 -118.5333 189° South 284 327 7,700  Level Southern California TRACON
Wed 07:42:00 PM 33.7667 -117.8512 90° East  Level FlightAware Approximate
Wed 07:42:46 PM 33.7194 -118.4867 154° Southeast 306 352 10,500  Level Los Angeles Center
Wed 07:43:00 PM 33.7500 -117.7016 90° East  Level FlightAware Approximate
Wed 07:43:48 PM 33.6461 -118.4203 143° Southeast 335 386 12,900  Level Los Angeles Center
Wed 07:44:00 PM 33.7333 -117.5682 90° East  Level FlightAware Approximate
Wed 07:44:50 PM 33.6292 -118.3069 100° East 359 413 15,300  Level Los Angeles Center
Wed 07:45:52 PM 33.6336 -118.1594 88° East 376 433 17,300 1,790 Climbing Los Angeles Center
Wed 07:46:54 PM 33.6350 -118.0217 89° East 406 467 19,000 1,790 Climbing Los Angeles Center
Wed 07:47:56 PM 33.6350 -117.8781 90° East 426 490 21,000 1,790 Climbing Los Angeles Center
Wed 07:48:58 PM 33.6361 -117.7333 89° East 435 501 22,700 1,597 Climbing Los Angeles Center
Wed 07:50:00 PM 33.6364 -117.5822 90° East 453 521 24,300 1,452 Climbing Los Angeles Center
Wed 07:51:02 PM 33.6358 -117.3939 90° East 471 542 25,700 1,500 Climbing Los Angeles Center
Wed 07:52:04 PM 33.6350 -117.2339 90° East 482 555 27,400 1,500 Climbing Los Angeles Center
Wed 07:53:06 PM 33.6347 -117.0731 90° East 485 558 28,800 1,355 Climbing Los Angeles Center
Wed 07:54:08 PM 33.6339 -116.9114 90° East 488 562 30,200 1,306 Climbing Los Angeles Center
Wed 07:55:10 PM 33.6328 -116.7436 90° East 485 558 31,500 1,161 Climbing Los Angeles Center
Wed 07:56:12 PM 33.6328 -116.5822 90° East 484 557 32,600 1,065 Climbing Los Angeles Center
Wed 07:57:14 PM 33.6308 -116.4228 91° East 477 549 33,700 912 Climbing Los Angeles Center
Wed 07:58:17 PM 33.6289 -116.2653 91° East 471 542 34,500 624 Climbing Los Angeles Center
Wed 07:59:19 PM 33.6533 -116.0817 81° East 463 533 35,000 242 Climbing Los Angeles Center
Wed 08:00:21 PM 33.7017 -115.9358 68° East 469 540 35,000  Level Los Angeles Center
Wed 08:01:23 PM 33.7472 -115.7919 69° East 462 532 35,000  Level Los Angeles Center
Wed 08:02:25 PM 33.7944 -115.6464 69° East 464 534 35,000  Level Los Angeles Center
Wed 08:03:27 PM 33.8414 -115.5000 69° East 469 540 35,000 -48 Level Los Angeles Center
Wed 08:04:29 PM 33.8869 -115.3542 69° East 466 536 34,900  Descending Los Angeles Center
Wed 08:05:31 PM 33.9436 -115.1803 69° East 467 537 35,000 48 Climbing Los Angeles Center
Wed 08:06:33 PM 33.9906 -115.0331 69° East 468 539 35,000  Level Los Angeles Center
Wed 08:07:35 PM 34.0375 -114.8847 69° East 476 548 35,000  Level Los Angeles Center
Wed 08:08:38 PM 34.0828 -114.7408 69° East 465 535 35,000  Level Los Angeles Center
Wed 08:09:40 PM 34.1281 -114.5919 70° East 470 541 35,000  Level Los Angeles Center
Wed 08:10:42 PM 34.1706 -114.4414 71° East 472 543 35,000  Level Los Angeles Center
Wed 08:11:44 PM 34.2200 -114.2606 72° East 474 545 35,000  Level Los Angeles Center
Wed 08:12:53 PM 34.2681 -114.0953 71° East 476 548 35,000  Level Albuquerque Center
Wed 08:13:55 PM 34.3086 -113.9456 72° East 473 544 35,000  Level Albuquerque Center
Wed 08:14:56 PM 34.3514 -113.7958 71° East 472 543 35,000  Level Albuquerque Center
Wed 08:15:58 PM 34.3925 -113.6450 72° East 473 544 35,000  Level Albuquerque Center
Wed 08:17:00 PM 34.4314 -113.4950 73° East 471 542 35,000  Level Albuquerque Center
Wed 08:18:02 PM 34.4819 -113.3156 71° East 472 543 35,000  Level Albuquerque Center
Wed 08:19:03 PM 34.5219 -113.1619 72° East 476 548 35,000  Level Albuquerque Center
Wed 08:20:05 PM 34.5625 -113.0111 72° East 476 548 35,000  Level Albuquerque Center
Wed 08:21:07 PM 34.6031 -112.8606 72° East 475 547 35,000  Level Albuquerque Center
Wed 08:22:08 PM 34.6428 -112.7111 72° East 472 543 35,000  Level Albuquerque Center
Wed 08:23:10 PM 34.6897 -112.5306 72° East 472 543 35,000  Level Albuquerque Center
Wed 08:24:12 PM 34.7261 -112.3800 74° East 470 541 35,000  Level Albuquerque Center
Wed 08:25:14 PM 34.7603 -112.2275 75° East 472 543 35,000  Level Albuquerque Center
Wed 08:26:15 PM 34.7953 -112.0739 74° East 475 547 35,000  Level Albuquerque Center
Wed 08:27:17 PM 34.8306 -111.9189 74° East 477 549 35,000  Level Albuquerque Center
Wed 08:28:18 PM 34.8661 -111.7628 74° East 480 552 35,000  Level Albuquerque Center
Wed 08:29:20 PM 34.9081 -111.5728 75° East 483 556 35,000  Level Albuquerque Center
Wed 08:30:22 PM 34.9442 -111.4144 74° East 484 557 35,000  Level Albuquerque Center
Wed 08:31:23 PM 34.9781 -111.2544 75° East 486 559 35,000  Level Albuquerque Center
Wed 08:32:25 PM 35.0125 -111.0969 75° East 483 556 35,000  Level Albuquerque Center
Wed 08:33:27 PM 35.0475 -110.9328 75° East 495 570 35,000  Level Albuquerque Center
Wed 08:34:28 PM 35.0842 -110.7636 75° East 488 562 35,000  Level Albuquerque Center
Wed 08:35:30 PM 35.1228 -110.5856 75° East 486 559 35,000  Level Albuquerque Center
Wed 08:36:32 PM 35.1561 -110.4325 75° East 487 560 35,000  Level Albuquerque Center
Wed 08:37:34 PM 35.1883 -110.2792 76° East 487 560 35,000  Level Albuquerque Center
Wed 08:38:35 PM 35.2261 -110.1006 75° East 487 560 35,000  Level Albuquerque Center
Wed 08:39:37 PM 35.2589 -109.9458 75° East 489 563 35,000  Level Albuquerque Center
Wed 08:40:39 PM 35.2961 -109.7658 76° East 491 565 35,000  Level Albuquerque Center
Wed 08:41:40 PM 35.3289 -109.6078 76° East 499 574 35,000  Level Albuquerque Center
Wed 08:42:42 PM 35.3647 -109.4297 76° East 489 563 35,000  Level Albuquerque Center
Wed 08:43:44 PM 35.3958 -109.2764 76° East 486 559 35,000  Level Albuquerque Center
Wed 08:44:45 PM 35.4278 -109.1219 76° East 488 562 35,000  Level Albuquerque Center
Wed 08:45:47 PM 35.4639 -108.9408 76° East 491 565 35,000  Level Albuquerque Center
Wed 08:46:49 PM 35.5000 -108.7886 74° East 490 564 35,000  Level Albuquerque Center
Wed 08:47:50 PM 35.5483 -108.6125 71° East 491 565 35,000  Level Albuquerque Center
Wed 08:48:52 PM 35.5900 -108.4614 71° East 490 564 35,000  Level Albuquerque Center
Wed 08:49:54 PM 35.6383 -108.2831 72° East 493 567 35,000  Level Albuquerque Center
Wed 08:50:56 PM 35.6786 -108.1311 72° East 492 566 35,000  Level Albuquerque Center
Wed 08:51:57 PM 35.7253 -107.9528 72° East 492 566 35,000  Level Albuquerque Center
Wed 08:52:59 PM 35.7647 -107.8025 72° East 486 559 35,000  Level Albuquerque Center
Wed 08:54:01 PM 35.8103 -107.6261 72° East 486 559 35,000  Level Albuquerque Center
Wed 08:55:02 PM 35.8503 -107.4725 72° East 490 564 35,000  Level Albuquerque Center
Wed 08:56:04 PM 35.8903 -107.3183 72° East 492 566 35,000  Level Albuquerque Center
Wed 08:57:05 PM 35.9339 -107.1503 72° East 490 564 35,000  Level Albuquerque Center
Wed 08:58:07 PM 35.9764 -106.9867 72° East 495 570 35,000  Level Albuquerque Center
Wed 08:59:09 PM 36.0183 -106.8236 72° East 497 572 35,000  Level Albuquerque Center
Wed 09:00:10 PM 36.0589 -106.6625 73° East 492 566 35,000  Level Albuquerque Center
Wed 09:01:12 PM 36.1000 -106.5000 73° East 492 566 35,000  Level Albuquerque Center
Wed 09:02:14 PM 36.1489 -106.3064 73° East 492 566 35,000  Level Albuquerque Center
Wed 09:03:15 PM 36.1889 -106.1442 73° East 492 566 35,000  Level Albuquerque Center
Wed 09:04:17 PM 36.2292 -105.9842 73° East 490 564 35,000  Level Albuquerque Center
Wed 09:05:18 PM 36.2689 -105.8181 73° East 497 572 35,000  Level Albuquerque Center
Wed 09:06:20 PM 36.3056 -105.6536 74° East 497 572 35,000  Level Albuquerque Center
Wed 09:07:21 PM 36.3467 -105.4900 73° East 492 566 35,000  Level Albuquerque Center
Wed 09:08:23 PM 36.3856 -105.3228 74° East 496 571 35,000  Level Albuquerque Center
Wed 09:09:24 PM 36.4244 -105.1592 73° East 492 566 35,000  Level Albuquerque Center
Wed 09:10:26 PM 36.4692 -104.9689 74° East 489 563 35,000  Level Albuquerque Center
Wed 09:11:27 PM 36.5033 -104.8078 75° East 480 552 35,000  Level Albuquerque Center
Wed 09:12:29 PM 36.5283 -104.6386 80° East 488 562 35,000  Level Albuquerque Center
Wed 09:13:30 PM 36.5553 -104.4706 79° East 491 565 35,000  Level Albuquerque Center
Wed 09:14:32 PM 36.5822 -104.3011 79° East 492 566 35,000  Level Albuquerque Center
Wed 09:15:33 PM 36.6083 -104.1297 79° East 497 572 35,000  Level Albuquerque Center
Wed 09:16:35 PM 36.6333 -103.9636 79° East 489 563 35,000  Level Albuquerque Center
Wed 09:17:36 PM 36.6589 -103.7967 79° East 487 560 35,000  Level Albuquerque Center
Wed 09:18:37 PM 36.6825 -103.6397 79° East 486 559 35,000  Level Albuquerque Center
Wed 09:19:39 PM 36.7089 -103.4528 80° East 490 564 35,000  Level Albuquerque Center
Wed 09:20:40 PM 36.7325 -103.2953 79° East 488 562 35,000  Level Albuquerque Center
Wed 09:21:42 PM 36.7592 -103.1086 80° East 489 563 35,000  Level Albuquerque Center
Wed 09:22:43 PM 36.7822 -102.9517 80° East 485 558 35,000  Level Albuquerque Center
Wed 09:23:44 PM 36.8069 -102.7708 80° East 478 550 35,000  Level Albuquerque Center
Wed 09:24:46 PM 36.8289 -102.6133 80° East 480 552 35,000  Level Albuquerque Center
Wed 09:25:47 PM 36.8517 -102.4442 80° East 487 560 35,000  Level Albuquerque Center
Wed 09:26:49 PM 36.8731 -102.2811 81° East 481 554 35,000  Level Albuquerque Center
Wed 09:27:50 PM 36.8550 -102.1042 97° East 466 536 35,000  Level Albuquerque Center
Wed 09:28:51 PM 36.8356 -101.9528 99° East 464 534 35,000  Level Albuquerque Center
Wed 09:29:53 PM 36.8083 -101.7828 101° East 455 524 35,000  Level Albuquerque Center
Wed 09:30:54 PM 36.7836 -101.6364 102° East 453 521 35,000  Level Albuquerque Center
Wed 09:31:56 PM 36.7569 -101.4881 103° East 456 525 35,000  Level Albuquerque Center
Wed 09:32:57 PM 36.7250 -101.3200 103° East 451 519 35,000  Level Albuquerque Center
Wed 09:33:59 PM 36.6947 -101.1731 104° East 455 524 35,000  Level Albuquerque Center
Wed 09:35:03 PM 36.6603 -101.0017 104° East 458 527 35,000  Level Kansas City Center
Wed 09:36:04 PM 36.6286 -100.8528 105° East 462 532 35,000  Level Kansas City Center
Wed 09:37:05 PM 36.5942 -100.6861 104° East 455 524 35,000  Level Kansas City Center
Wed 09:38:06 PM 36.5614 -100.5425 106° East 453 521 35,000  Level Kansas City Center
Wed 09:39:08 PM 36.5239 -100.3783 106° East 450 518 35,000  Level Kansas City Center
Wed 09:40:09 PM 36.4900 -100.2300 106° East 447 514 35,000  Level Kansas City Center
Wed 09:41:10 PM 36.4575 -100.0817 105° East 445 512 35,000  Level Kansas City Center
Wed 09:42:11 PM 36.4250 -99.9328 105° East 446 513 35,000 -98 Level Kansas City Center
Wed 09:43:12 PM 36.3922 -99.7853 105° East 442 509 34,800 -829 Descending Kansas City Center
Wed 09:44:14 PM 36.3603 -99.6347 105° East 447 514 33,300 -1,561 Descending Kansas City Center
Wed 09:45:15 PM 36.3300 -99.4800 104° East 455 524 31,600 -1,131 Descending Kansas City Center
Wed 09:46:16 PM 36.3039 -99.3228 102° East 460 529 31,000 -1,024 Descending Kansas City Center
Wed 09:47:18 PM 36.2747 -99.1631 103° East 467 537 29,500 -984 Descending Kansas City Center
Wed 09:48:18 PM 36.2642 -99.0031 95° East 461 531 29,000 -246 Descending Kansas City Center
Wed 09:49:20 PM 36.2736 -98.8436 86° East 459 528 29,000  Level Kansas City Center
Wed 09:50:21 PM 36.2981 -98.6872 79° East 460 529 29,000 -49 Level Kansas City Center
Wed 09:51:22 PM 36.3242 -98.5333 78° East 457 526 28,900 -885 Descending Kansas City Center
Wed 09:52:23 PM 36.3642 -98.3856 71° East 458 527 27,200 -934 Descending Kansas City Center
Wed 09:53:24 PM 36.4606 -98.2783 42° Northeast 464 534 27,000 -98 Descending Kansas City Center
Wed 09:54:25 PM 36.5625 -98.1322 49° Northeast 465 535 27,000  Level Kansas City Center
Wed 09:55:27 PM 36.6581 -98.0211 43° Northeast 467 537 27,000  Level Kansas City Center
Wed 09:56:27 PM 36.7636 -97.9289 35° Northeast 460 529 27,000  Level Kansas City Center
Wed 09:57:29 PM 36.8619 -97.8219 41° Northeast 459 528 27,000  Level Kansas City Center
Wed 09:58:30 PM 36.9211 -97.6806 62° Northeast 466 536 27,000  Level Kansas City Center
Wed 09:59:31 PM 36.9803 -97.5428 62° Northeast 458 527 27,000  Level Kansas City Center
Wed 10:00:32 PM 37.0417 -97.4050 61° Northeast 456 525 27,000  Level Kansas City Center
Wed 10:01:33 PM 37.1014 -97.2681 61° Northeast 454 522 27,000  Level Kansas City Center
Wed 10:02:34 PM 37.1508 -97.1264 66° East 449 517 27,000  Level Kansas City Center
Wed 10:03:35 PM 37.1969 -96.9747 69° East 462 532 27,000  Level Kansas City Center
Wed 10:04:36 PM 37.2442 -96.8236 69° East 465 535 27,000  Level Kansas City Center
Wed 10:05:37 PM 37.2911 -96.6756 68° East 462 532 27,000  Level Kansas City Center
Wed 10:06:38 PM 37.3453 -96.4986 69° East 457 526 27,000  Level Kansas City Center
Wed 10:07:39 PM 37.3906 -96.3533 69° East 454 522 27,000  Level Kansas City Center
Wed 10:08:40 PM 37.4353 -96.2067 69° East 451 519 27,000  Level Kansas City Center
Wed 10:09:41 PM 37.4811 -96.0556 69° East 452 520 27,000  Level Kansas City Center
Wed 10:10:42 PM 37.5275 -95.9006 69° East 458 527 27,000  Level Kansas City Center
Wed 10:11:43 PM 37.5750 -95.7458 69° East 466 536 27,000  Level Kansas City Center
Wed 10:12:44 PM 37.6183 -95.5981 70° East 457 526 27,000  Level Kansas City Center
Wed 10:13:45 PM 37.6625 -95.4528 69° East 448 516 27,000  Level Kansas City Center
Wed 10:14:46 PM 37.7072 -95.3042 69° East 449 517 27,000  Level Kansas City Center
Wed 10:15:47 PM 37.7522 -95.1547 69° East 451 519 27,000  Level Kansas City Center
Wed 10:16:48 PM 37.7981 -94.9953 70° East 454 522 27,000  Level Kansas City Center
Wed 10:17:49 PM 37.8408 -94.8531 69° East 454 522 27,000  Level Kansas City Center
Wed 10:18:50 PM 37.8886 -94.6858 70° East 454 522 27,000  Level Kansas City Center
Wed 10:19:51 PM 37.9339 -94.5464 68° East 456 525 27,000  Level Kansas City Center
Wed 10:20:52 PM 38.0094 -94.4317 50° Northeast 445 512 27,000  Level Kansas City Center
Wed 10:21:53 PM 38.0964 -94.2967 51° Northeast 442 509 27,000  Level Kansas City Center
Wed 10:22:54 PM 38.1711 -94.1819 50° Northeast 441 507 27,000  Level Kansas City Center
Wed 10:23:55 PM 38.2492 -94.0683 49° Northeast 444 511 27,000  Level Kansas City Center
Wed 10:24:56 PM 38.3289 -93.9517 49° Northeast 440 506 27,000  Level Kansas City Center
Wed 10:25:57 PM 38.4389 -93.8244 42° Northeast 440 506 27,000  Level Kansas City Center
Wed 10:26:58 PM 38.5208 -93.7078 48° Northeast 439 505 27,000  Level Kansas City Center
Wed 10:27:59 PM 38.5969 -93.5778 53° Northeast 450 518 27,000  Level Kansas City Center
Wed 10:29:00 PM 38.6417 -93.4336 68° East 449 517 27,000  Level Kansas City Center
Wed 10:30:01 PM 38.6461 -93.2750 88° East 447 514 27,000  Level Kansas City Center
Wed 10:31:02 PM 38.6517 -93.1178 87° East 443 510 27,000  Level Kansas City Center
Wed 10:32:03 PM 38.6578 -92.9550 87° East 449 517 27,000  Level Kansas City Center
Wed 10:33:04 PM 38.6633 -92.7883 88° East 459 528 27,000  Level Kansas City Center
Wed 10:34:05 PM 38.6692 -92.6231 87° East 462 532 27,000  Level Kansas City Center
Wed 10:35:06 PM 38.6731 -92.4589 88° East 461 531 27,000  Level Kansas City Center
Wed 10:36:07 PM 38.6775 -92.2933 88° East 462 532 27,000 -148 Level Kansas City Center
Wed 10:37:08 PM 38.6828 -92.1297 88° East 459 528 26,700 -836 Descending Kansas City Center
Wed 10:38:09 PM 38.6856 -91.9694 89° East 452 520 25,300 -1,426 Descending Kansas City Center
Wed 10:39:10 PM 38.6892 -91.8133 88° East 441 507 23,800 -1,623 Descending Kansas City Center
Wed 10:40:11 PM 38.6919 -91.6608 89° East 430 495 22,000 -2,016 Descending Kansas City Center
Wed 10:41:12 PM 38.6919 -91.5064 90° East 431 496 19,700 -2,410 Descending Kansas City Center
Wed 10:42:13 PM 38.6931 -91.3486 89° East 421 484 17,100 -2,311 Descending Kansas City Center
Wed 10:43:14 PM 38.6917 -91.2053 91° East 409 471 15,000 -1,785 Descending Kansas City Center
Wed 10:44:14 PM 38.6939 -91.0647 89° East 399 459 13,500 -1,636 Descending Kansas City Center
Wed 10:45:15 PM 38.6961 -90.9239 89° East 397 457 11,700 -1,122 Descending Kansas City Center
Wed 10:46:17 PM 38.6972 -90.8011 89° East 353 406 11,200 -934 Descending Kansas City Center
Wed 10:47:17 PM 38.6978 -90.6875 90° East 327 376 9,800 -1,884 Descending Kansas City Center
Wed 10:48:18 PM 38.6978 -90.5808 90° East 308 354 7,400 -1,869 Descending Kansas City Center
Wed 10:49:19 PM 38.6886 -90.4842 97° East 277 319 6,000 -1,426 Descending Kansas City Center
Wed 10:50:20 PM 38.6578 -90.3986 115° Southeast 244 281 4,500 -1,475 Descending Kansas City Center

Login

Don't have an account? Register now (free) for customized features, flight alerts, and more!